Time;durP1;ratioP1;P1;durP2;ratioP2;P2;SDS_P1;SDS_P2;PMS_P1;PMS_P2;Temp;Humidity;BMP_temperature;BMP_pressure;BME280_temperature;BME280_humidity;BME280_pressure;Samples;Min_cycle;Max_cycle;Signal;HPM_P1;HPM_P2
2022/01/20 00:00:14;;;;;;;11.05;1.30;;;4.10;99.90;;;;;;5093079;28;20040;-80
2022/01/20 00:02:42;;;;;;;10.98;1.33;;;4.00;99.90;;;;;;5094104;28;20463;-81
2022/01/20 00:05:25;;;;;;;9.02;1.73;;;4.00;99.90;;;;;;5092747;28;20032;-81
2022/01/20 00:08:13;;;;;;;7.32;1.33;;;3.90;99.90;;;;;;5075120;28;20048;-81
2022/01/20 00:27:10;;;;;;;6.32;1.08;;;4.00;99.90;;;;;;5094195;28;20383;-80
2022/01/20 00:30:18;;;;;;;6.55;1.05;;;4.10;99.90;;;;;;5091273;28;20036;-81
2022/01/20 00:33:02;;;;;;;7.82;1.00;;;4.20;99.90;;;;;;5092495;28;20556;-81
2022/01/20 00:37:14;;;;;;;5.05;0.70;;;4.20;99.90;;;;;;5091349;28;20555;-81
2022/01/20 00:38:17;;;;;;;15.77;1.00;;;4.20;99.90;;;;;;5092673;28;20036;-82
2022/01/20 00:40:42;;;;;;;8.85;1.13;;;4.20;99.90;;;;;;5097537;28;20062;-81
2022/01/20 00:43:08;;;;;;;7.55;0.70;;;4.10;99.90;;;;;;5079907;28;20027;-81
2022/01/20 00:45:34;;;;;;;10.88;3.60;;;4.10;99.90;;;;;;5080673;28;20036;-81
2022/01/20 00:47:59;;;;;;;3.30;0.60;;;4.10;99.90;;;;;;5097028;28;20482;-82
2022/01/20 00:50:25;;;;;;;6.10;0.57;;;4.10;99.90;;;;;;5098564;28;20032;-82
2022/01/20 00:52:51;;;;;;;7.88;0.88;;;4.10;99.90;;;;;;5079736;28;20051;-81
2022/01/20 00:55:18;;;;;;;5.93;0.70;;;4.10;99.90;;;;;;5098220;28;20122;-81
2022/01/20 00:57:43;;;;;;;10.25;1.85;;;4.00;99.90;;;;;;5079934;28;20043;-80
2022/01/20 01:00:12;;;;;;;9.80;1.92;;;4.10;99.90;;;;;;5098596;28;20058;-81
2022/01/20 01:02:38;;;;;;;6.25;1.27;;;4.00;99.90;;;;;;5080434;28;20036;-82
2022/01/20 01:05:05;;;;;;;4.38;0.95;;;4.00;99.90;;;;;;5093605;28;20047;-81
2022/01/20 01:09:57;;;;;;;8.93;0.90;;;4.00;99.90;;;;;;5096355;28;20127;-81
2022/01/20 01:13:09;;;;;;;6.38;2.25;;;4.10;99.90;;;;;;5096295;28;20062;-81
2022/01/20 01:15:18;;;;;;;7.68;1.45;;;4.20;99.90;;;;;;5082206;28;20046;-82
2022/01/20 01:20:31;;;;;;;5.95;0.70;;;4.30;99.90;;;;;;5095638;28;20076;-80
2022/01/20 01:22:57;;;;;;;10.77;0.73;;;4.30;99.90;;;;;;5097142;28;20040;-81
2022/01/20 01:25:22;;;;;;;5.32;1.30;;;4.30;99.90;;;;;;5078310;28;20079;-81
2022/01/20 01:27:48;;;;;;;12.10;0.77;;;4.30;99.90;;;;;;5079616;28;20036;-82
2022/01/20 01:30:26;;;;;;;6.18;0.80;;;4.30;99.90;;;;;;5096246;28;20039;-82
2022/01/20 01:32:54;;;;;;;6.28;0.60;;;4.30;99.90;;;;;;5083133;28;20036;-81
2022/01/20 01:35:23;;;;;;;4.93;1.15;;;4.30;99.90;;;;;;5101753;28;20439;-81
2022/01/20 01:40:32;;;;;;;14.32;1.60;;;4.40;99.90;;;;;;5107349;28;20104;-81
2022/01/20 01:43:01;;;;;;;4.18;0.70;;;4.20;99.90;;;;;;5110515;28;20062;-80
2022/01/20 01:45:33;;;;;;;7.57;0.82;;;4.10;99.90;;;;;;5092722;28;20040;-82
2022/01/20 01:48:00;;;;;;;5.68;0.60;;;4.00;99.90;;;;;;5110726;28;20032;-81
2022/01/20 01:50:27;;;;;;;5.45;1.10;;;4.00;99.90;;;;;;5107620;28;20036;-82
2022/01/20 01:52:55;;;;;;;5.88;0.60;;;3.90;99.90;;;;;;5109763;28;20032;-81
2022/01/20 01:55:21;;;;;;;6.65;0.82;;;3.90;99.90;;;;;;5090639;28;20046;-82
2022/01/20 01:57:46;;;;;;;5.00;0.30;;;3.80;99.90;;;;;;5090211;28;20047;-80
2022/01/20 02:00:16;;;;;;;7.90;0.60;;;3.70;99.90;;;;;;5098248;28;20461;-82
2022/01/20 02:02:43;;;;;;;4.60;0.30;;;3.70;99.90;;;;;;5097936;28;20071;-81
2022/01/20 02:05:14;;;;;;;6.53;1.00;;;3.60;99.90;;;;;;5095206;28;20044;-82
2022/01/20 02:21:10;;;;;;;4.05;1.02;;;3.50;99.90;;;;;;5095929;28;20076;-82
2022/01/20 02:23:36;;;;;;;7.10;0.73;;;3.60;99.90;;;;;;5096485;28;20036;-80
2022/01/20 02:26:02;;;;;;;4.70;0.52;;;3.60;99.90;;;;;;5080671;28;20508;-82
2022/01/20 02:28:27;;;;;;;6.00;1.30;;;3.70;99.90;;;;;;5100774;28;20036;-82
2022/01/20 02:30:54;;;;;;;3.25;0.95;;;3.80;99.90;;;;;;5099666;28;20036;-81
2022/01/20 02:33:22;;;;;;;1.65;0.10;;;3.80;99.90;;;;;;5100857;28;20036;-80
2022/01/20 02:35:53;;;;;;;2.65;0.52;;;3.80;99.90;;;;;;5084111;28;20035;-81
2022/01/20 02:38:34;;;;;;;4.18;0.40;;;3.90;99.90;;;;;;5095728;28;20097;-81
2022/01/20 02:46:30;;;;;;;3.15;0.60;;;3.90;99.90;;;;;;5101882;28;20039;-82
2022/01/20 02:48:57;;;;;;;2.53;0.17;;;3.80;99.90;;;;;;5101263;28;20043;-81
2022/01/20 02:51:23;;;;;;;1.95;0.40;;;3.70;99.90;;;;;;5102559;28;20068;-81
2022/01/20 02:53:48;;;;;;;5.13;0.80;;;3.50;99.90;;;;;;5100722;28;20039;-82
2022/01/20 02:56:14;;;;;;;6.75;1.38;;;3.40;99.90;;;;;;5099684;28;20036;-81
2022/01/20 02:58:41;;;;;;;4.88;1.00;;;3.30;99.90;;;;;;5099417;28;20094;-81
2022/01/20 03:01:07;;;;;;;7.03;1.10;;;3.30;99.90;;;;;;5099711;28;20054;-80
2022/01/20 03:03:34;;;;;;;8.15;1.15;;;3.30;99.90;;;;;;5099007;28;20043;-81
2022/01/20 03:05:59;;;;;;;5.80;1.00;;;3.20;99.90;;;;;;5098342;28;20074;-80
2022/01/20 03:08:25;;;;;;;9.82;0.95;;;3.30;99.90;;;;;;5096619;28;20564;-81
2022/01/20 03:10:51;;;;;;;5.05;0.55;;;3.20;99.90;;;;;;5097759;28;20039;-81
2022/01/20 03:13:17;;;;;;;9.55;1.38;;;3.20;99.90;;;;;;5080655;28;20040;-81
2022/01/20 03:15:43;;;;;;;12.00;3.03;;;3.20;99.90;;;;;;5096533;28;20066;-81
2022/01/20 03:18:09;;;;;;;9.05;1.45;;;3.20;99.90;;;;;;5097780;28;20092;-82
2022/01/20 03:20:35;;;;;;;9.77;1.50;;;3.20;99.90;;;;;;5095817;28;20067;-81
2022/01/20 03:23:01;;;;;;;12.10;1.92;;;3.10;99.90;;;;;;5097773;28;20055;-80
2022/01/20 03:25:27;;;;;;;8.77;1.37;;;3.20;99.90;;;;;;5095584;28;20035;-80
2022/01/20 03:27:54;;;;;;;12.93;2.00;;;3.20;99.90;;;;;;5097365;28;20036;-81
2022/01/20 03:30:20;;;;;;;11.90;3.65;;;3.20;99.90;;;;;;5097445;28;20044;-81
2022/01/20 03:32:46;;;;;;;6.70;1.27;;;3.30;99.90;;;;;;5100645;28;20273;-81
2022/01/20 03:35:14;;;;;;;12.20;1.42;;;3.40;99.90;;;;;;5085431;28;20499;-81
2022/01/20 03:37:50;;;;;;;5.22;1.30;;;3.60;99.90;;;;;;5100684;28;20069;-81
2022/01/20 03:40:17;;;;;;;5.38;1.05;;;3.60;99.90;;;;;;5098887;28;20071;-80
2022/01/20 03:42:43;;;;;;;10.43;1.27;;;3.60;99.90;;;;;;5097071;28;20402;-81
2022/01/20 03:45:09;;;;;;;12.05;1.58;;;3.60;99.90;;;;;;5098677;28;20047;-81
2022/01/20 03:47:34;;;;;;;6.43;1.23;;;3.50;99.90;;;;;;5097368;28;20031;-81
2022/01/20 03:52:27;;;;;;;4.53;1.00;;;3.40;99.90;;;;;;5098136;28;20044;-80
2022/01/20 03:54:53;;;;;;;8.32;1.55;;;3.40;99.90;;;;;;5095744;28;20036;-80
2022/01/20 03:57:19;;;;;;;11.57;2.13;;;3.30;99.90;;;;;;5096218;28;20040;-81
2022/01/20 03:59:45;;;;;;;5.22;0.68;;;3.30;99.90;;;;;;5080097;28;20035;-80
2022/01/20 04:02:11;;;;;;;15.80;2.63;;;3.30;99.90;;;;;;5097712;28;20447;-81
2022/01/20 04:04:36;;;;;;;14.13;2.67;;;3.30;99.90;;;;;;5080370;28;20035;-80
2022/01/20 04:07:03;;;;;;;12.20;2.20;;;3.40;99.90;;;;;;5096346;28;20174;-79
2022/01/20 04:09:29;;;;;;;12.45;3.40;;;3.40;99.90;;;;;;5096042;28;20101;-81
2022/01/20 04:11:54;;;;;;;10.70;1.77;;;3.50;99.90;;;;;;5096341;28;20416;-80
2022/01/20 04:14:23;;;;;;;7.70;1.23;;;3.50;99.90;;;;;;5096061;28;20047;-81
2022/01/20 04:17:02;;;;;;;9.13;2.07;;;3.50;99.90;;;;;;5095256;28;20510;-79
2022/01/20 04:19:30;;;;;;;11.00;3.00;;;3.50;99.90;;;;;;5075730;28;20040;-79
2022/01/20 04:21:56;;;;;;;14.57;1.90;;;3.50;99.90;;;;;;5089006;28;20052;-79
2022/01/20 04:24:22;;;;;;;4.87;0.73;;;3.50;99.90;;;;;;5071942;28;20371;-80
2022/01/20 04:26:48;;;;;;;8.10;1.73;;;3.50;99.90;;;;;;5088271;28;20040;-80
2022/01/20 04:29:16;;;;;;;5.80;0.70;;;3.50;99.90;;;;;;5089176;28;20383;-79
2022/01/20 04:31:43;;;;;;;8.93;1.83;;;3.50;99.90;;;;;;5088415;28;20502;-80
2022/01/20 04:34:09;;;;;;;10.00;1.20;;;3.50;99.90;;;;;;5088514;28;20032;-79
2022/01/20 04:36:40;;;;;;;4.63;1.30;;;3.50;99.90;;;;;;5087948;28;20054;-80
2022/01/20 04:39:09;;;;;;;10.13;0.90;;;3.50;99.90;;;;;;5086892;28;20115;-78
2022/01/20 04:41:35;;;;;;;3.83;0.40;;;3.40;99.90;;;;;;5088409;28;20081;-79
2022/01/20 04:44:02;;;;;;;8.63;1.10;;;3.40;99.90;;;;;;5088737;28;20048;-79
2022/01/20 04:46:55;;;;;;;6.73;1.80;;;3.50;99.90;;;;;;5087619;28;20512;-80
2022/01/20 04:57:05;;;;;;;5.07;2.67;;;3.50;99.90;;;;;;5087570;28;20444;-79
2022/01/20 04:57:50;;;;;;;3.70;0.60;;;3.40;99.90;;;;;;5088051;28;20491;-79
2022/01/20 05:00:16;;;;;;;7.00;0.50;;;3.40;99.90;;;;;;5088587;28;20040;-79
2022/01/20 05:02:41;;;;;;;5.53;1.07;;;3.50;99.90;;;;;;5087950;28;20162;-78
2022/01/20 05:05:08;;;;;;;2.97;0.40;;;3.60;99.90;;;;;;5087939;28;20419;-80
2022/01/20 05:07:34;;;;;;;8.57;1.80;;;3.70;99.90;;;;;;5088114;28;20040;-78
2022/01/20 05:10:00;;;;;;;8.07;1.20;;;3.70;99.90;;;;;;5088989;28;20367;-79
2022/01/20 05:12:37;;;;;;;3.90;0.70;;;3.70;99.90;;;;;;5088260;28;20131;-79
2022/01/20 05:15:03;;;;;;;6.03;0.50;;;3.60;99.90;;;;;;5086797;28;20497;-78
2022/01/20 05:17:28;;;;;;;2.57;0.97;;;3.50;99.90;;;;;;5088343;28;20067;-79
2022/01/20 05:19:54;;;;;;;4.27;1.53;;;3.40;99.90;;;;;;5088736;28;20384;-79
2022/01/20 05:22:19;;;;;;;6.73;0.63;;;3.40;99.90;;;;;;5087838;28;20054;-79
2022/01/20 05:24:45;;;;;;;7.93;0.87;;;3.40;99.90;;;;;;5088635;28;20490;-79
2022/01/20 05:27:10;;;;;;;7.67;1.80;;;3.30;99.90;;;;;;5091992;28;20509;-79
2022/01/20 05:29:36;;;;;;;4.53;1.03;;;3.20;99.90;;;;;;5091652;28;20445;-79
2022/01/20 05:32:02;;;;;;;7.67;1.37;;;3.20;99.90;;;;;;5091931;28;20428;-79
2022/01/20 05:34:27;;;;;;;2.13;0.27;;;3.20;99.90;;;;;;5091975;28;20410;-79
2022/01/20 05:36:53;;;;;;;8.43;2.00;;;3.10;99.90;;;;;;5091520;28;20405;-80
2022/01/20 05:39:18;;;;;;;7.30;0.67;;;3.10;99.90;;;;;;5074775;28;20090;-79
2022/01/20 05:41:44;;;;;;;9.57;1.33;;;3.10;99.90;;;;;;5091337;28;20036;-79
2022/01/20 05:44:10;;;;;;;6.70;0.70;;;3.20;99.90;;;;;;5091747;28;20051;-79
2022/01/20 05:46:41;;;;;;;6.87;1.23;;;3.20;99.90;;;;;;5091177;28;20431;-79
2022/01/20 05:49:10;;;;;;;1.97;1.13;;;3.20;99.90;;;;;;5089215;28;20036;-79
2022/01/20 05:51:39;;;;;;;5.23;0.50;;;3.20;99.90;;;;;;5090787;28;20043;-80
2022/01/20 05:54:06;;;;;;;3.50;0.43;;;3.10;99.90;;;;;;5091693;28;20451;-79
2022/01/20 05:56:32;;;;;;;5.00;0.80;;;3.00;99.90;;;;;;5074062;28;20047;-78
2022/01/20 05:58:59;;;;;;;3.30;0.93;;;2.90;99.90;;;;;;5092073;28;20036;-79
2022/01/20 06:01:25;;;;;;;4.00;0.20;;;2.80;99.90;;;;;;5074119;28;20070;-79
2022/01/20 06:03:51;;;;;;;2.80;0.30;;;2.90;99.90;;;;;;5072258;28;20209;-78
2022/01/20 06:06:17;;;;;;;6.17;0.70;;;2.70;99.90;;;;;;5091109;28;20118;-78
2022/01/20 06:08:43;;;;;;;9.60;1.27;;;2.70;99.90;;;;;;5091277;28;20032;-79
2022/01/20 06:11:09;;;;;;;5.67;0.60;;;2.60;99.90;;;;;;5090960;28;20079;-79
2022/01/20 06:13:35;;;;;;;5.20;0.30;;;2.50;99.90;;;;;;5092187;28;20083;-79
2022/01/20 06:16:01;;;;;;;8.60;1.10;;;2.40;99.90;;;;;;5092525;28;20044;-80
2022/01/20 06:18:27;;;;;;;5.13;0.87;;;2.30;99.90;;;;;;5092676;28;20040;-79
2022/01/20 06:20:53;;;;;;;20.73;3.50;;;2.30;99.90;;;;;;5092577;28;20108;-79
2022/01/20 06:23:19;;;;;;;12.50;0.90;;;2.20;99.90;;;;;;5092275;28;20048;-79
2022/01/20 06:25:46;;;;;;;14.50;2.27;;;2.20;99.90;;;;;;5075089;28;20048;-79
2022/01/20 06:28:12;;;;;;;7.47;2.27;;;2.20;99.90;;;;;;5092399;28;20046;-79
2022/01/20 06:30:38;;;;;;;13.87;0.90;;;2.20;99.90;;;;;;5092284;28;20040;-79
2022/01/20 06:33:04;;;;;;;6.50;0.90;;;2.20;99.90;;;;;;5092086;28;20123;-79
2022/01/20 06:35:30;;;;;;;7.97;0.83;;;2.30;99.90;;;;;;5092086;28;20111;-79
2022/01/20 06:37:56;;;;;;;4.70;0.70;;;2.30;99.90;;;;;;5074792;28;20047;-79
2022/01/20 06:40:22;;;;;;;3.07;0.67;;;2.40;99.90;;;;;;5091904;28;20036;-79
2022/01/20 06:42:48;;;;;;;2.30;0.53;;;2.50;99.90;;;;;;5092215;28;20035;-79
2022/01/20 06:45:15;;;;;;;5.77;1.60;;;2.70;99.90;;;;;;5092296;28;20119;-78
2022/01/20 06:47:41;;;;;;;9.87;1.27;;;2.80;99.90;;;;;;5092149;28;20043;-81
2022/01/20 06:50:12;;;;;;;5.63;0.90;;;2.90;99.90;;;;;;5091996;28;20032;-78
2022/01/20 06:52:39;;;;;;;6.97;1.40;;;3.00;99.90;;;;;;5091886;28;20048;-79
2022/01/20 06:55:07;;;;;;;10.80;1.63;;;3.00;99.90;;;;;;5092924;28;20111;-78
2022/01/20 06:57:37;;;;;;;6.50;1.07;;;3.00;99.90;;;;;;5091606;28;20051;-78
2022/01/20 07:00:08;;;;;;;10.03;2.27;;;3.10;99.90;;;;;;5091773;28;20170;-79
2022/01/20 07:02:34;;;;;;;6.10;1.10;;;3.00;99.90;;;;;;5075352;28;20433;-79
2022/01/20 07:04:59;;;;;;;5.80;1.00;;;2.90;99.90;;;;;;5091625;28;20043;-80
2022/01/20 07:07:25;;;;;;;8.50;1.63;;;2.70;99.90;;;;;;5091311;28;20035;-79
2022/01/20 07:09:50;;;;;;;6.73;0.50;;;2.50;99.90;;;;;;5091760;28;20072;-79
2022/01/20 07:12:16;;;;;;;4.33;1.23;;;2.40;99.90;;;;;;5091349;28;20036;-79
2022/01/20 07:14:41;;;;;;;7.57;1.00;;;2.30;99.90;;;;;;5091423;28;20403;-79
2022/01/20 07:17:07;;;;;;;9.40;1.33;;;2.20;99.90;;;;;;5074444;28;20483;-79
2022/01/20 07:19:33;;;;;;;5.40;0.50;;;2.20;99.90;;;;;;5091459;28;20052;-80
2022/01/20 07:21:59;;;;;;;3.70;0.70;;;2.10;99.90;;;;;;5091458;28;20453;-79
2022/01/20 07:24:27;;;;;;;8.40;1.47;;;2.10;99.90;;;;;;5074135;28;20119;-80
2022/01/20 07:26:53;;;;;;;5.90;0.70;;;2.20;99.90;;;;;;5090982;28;20047;-79
2022/01/20 07:29:19;;;;;;;4.97;0.97;;;2.20;99.90;;;;;;5091372;28;20540;-79
2022/01/20 07:31:44;;;;;;;7.77;1.03;;;2.30;99.90;;;;;;5091608;28;20047;-79
2022/01/20 07:34:10;;;;;;;4.10;0.53;;;2.30;99.90;;;;;;5094408;28;20044;-79
2022/01/20 07:36:35;;;;;;;3.73;0.60;;;2.30;99.90;;;;;;5094209;28;20074;-79
2022/01/20 07:39:01;;;;;;;8.27;1.47;;;2.30;99.90;;;;;;5093155;28;20047;-79
2022/01/20 07:41:27;;;;;;;10.50;1.20;;;2.30;99.90;;;;;;5093317;28;20461;-78
2022/01/20 07:43:52;;;;;;;5.90;0.87;;;2.30;99.90;;;;;;5093178;28;20093;-79
2022/01/20 07:46:18;;;;;;;10.43;2.60;;;2.30;99.90;;;;;;5093496;28;20032;-79
2022/01/20 07:48:44;;;;;;;7.17;1.17;;;2.30;99.90;;;;;;5093923;28;20044;-79
2022/01/20 07:51:10;;;;;;;9.60;0.90;;;2.30;99.90;;;;;;5076489;28;20040;-78
2022/01/20 07:53:36;;;;;;;14.43;0.90;;;2.30;99.90;;;;;;5090711;28;20051;-78
2022/01/20 07:56:03;;;;;;;11.03;1.20;;;2.20;99.90;;;;;;5090477;28;20055;-78
2022/01/20 07:58:29;;;;;;;13.93;1.13;;;2.20;99.90;;;;;;5073798;28;20044;-78
2022/01/20 08:00:54;;;;;;;7.10;1.33;;;2.10;99.90;;;;;;5091329;28;20067;-81
2022/01/20 08:03:20;;;;;;;7.90;1.07;;;2.00;99.90;;;;;;5090876;28;20082;-78
2022/01/20 08:05:45;;;;;;;8.37;1.10;;;2.00;99.90;;;;;;5090201;28;20044;-78
2022/01/20 08:08:11;;;;;;;2.87;0.33;;;2.10;99.90;;;;;;5090336;28;20036;-79
2022/01/20 08:10:36;;;;;;;6.07;0.77;;;2.30;99.90;;;;;;5092493;28;20510;-79
2022/01/20 08:13:03;;;;;;;1.80;0.40;;;2.50;99.90;;;;;;5091734;28;20040;-79
2022/01/20 08:15:29;;;;;;;4.93;0.43;;;2.30;99.90;;;;;;5092291;28;20036;-82
2022/01/20 08:17:55;;;;;;;3.33;0.30;;;2.00;99.90;;;;;;5092542;28;20479;-81
2022/01/20 08:20:21;;;;;;;4.87;0.53;;;1.90;99.90;;;;;;5092204;28;20047;-82
2022/01/20 08:22:46;;;;;;;2.43;0.20;;;1.90;99.90;;;;;;5092984;28;20071;-81
2022/01/20 08:25:17;;;;;;;2.90;0.40;;;1.90;99.90;;;;;;5092762;28;20178;-82
2022/01/20 08:27:45;;;;;;;5.47;0.50;;;2.10;99.90;;;;;;5092979;28;20044;-81
2022/01/20 08:30:16;;;;;;;1.27;0.20;;;2.20;99.90;;;;;;5092943;28;20047;-81
2022/01/20 08:32:43;;;;;;;4.70;1.07;;;2.20;99.90;;;;;;5077496;28;20035;-81
2022/01/20 08:35:10;;;;;;;4.00;0.37;;;2.30;99.90;;;;;;5095073;28;20076;-80
2022/01/20 08:37:40;;;;;;;5.73;0.60;;;2.30;99.90;;;;;;5092788;28;20494;-80
2022/01/20 08:40:09;;;;;;;5.80;1.03;;;2.30;99.90;;;;;;5091535;28;20441;-80
2022/01/20 08:42:35;;;;;;;7.60;0.90;;;2.40;99.90;;;;;;5091954;28;20043;-81
2022/01/20 08:45:02;;;;;;;11.00;1.00;;;2.30;99.90;;;;;;5091421;28;20049;-80
2022/01/20 08:47:27;;;;;;;9.47;1.70;;;2.30;99.90;;;;;;5090156;28;20089;-79
2022/01/20 08:49:53;;;;;;;6.33;1.73;;;2.40;99.90;;;;;;5090168;28;20048;-78
2022/01/20 08:52:19;;;;;;;7.80;0.70;;;2.40;99.90;;;;;;5090288;28;20119;-78
2022/01/20 08:54:47;;;;;;;10.50;1.43;;;2.40;99.90;;;;;;5090076;28;20573;-79
2022/01/20 08:57:16;;;;;;;5.50;2.03;;;2.40;99.90;;;;;;5090101;28;20052;-79
2022/01/20 08:59:42;;;;;;;7.47;1.07;;;2.50;99.90;;;;;;5090504;28;20078;-78
2022/01/20 09:02:12;;;;;;;10.37;1.50;;;2.50;99.90;;;;;;5094074;28;20093;-79
2022/01/20 09:04:39;;;;;;;8.57;1.50;;;2.60;99.90;;;;;;5093987;28;20047;-79
2022/01/20 09:07:04;;;;;;;6.87;1.10;;;2.70;99.90;;;;;;5093741;28;20123;-79
2022/01/20 09:09:34;;;;;;;3.77;0.60;;;3.10;99.90;;;;;;5094254;28;20127;-79
2022/01/20 09:17:27;;;;;;;4.47;0.50;;;3.30;99.90;;;;;;5097270;28;20062;-80
2022/01/20 09:19:53;;;;;;;4.27;0.47;;;3.50;99.90;;;;;;5097865;28;20509;-81
2022/01/20 09:22:21;;;;;;;3.13;0.30;;;3.50;99.90;;;;;;5098472;28;20044;-81
2022/01/20 09:24:47;;;;;;;1.70;0.03;;;3.40;99.90;;;;;;5097125;28;20101;-82
2022/01/20 09:27:14;;;;;;;1.30;0.00;;;3.50;99.90;;;;;;5096218;28;20056;-82
2022/01/20 09:29:40;;;;;;;1.57;0.43;;;3.10;99.90;;;;;;5097199;28;20372;-81
2022/01/20 09:32:08;;;;;;;4.97;0.22;;;3.10;99.90;;;;;;5096969;28;20039;-80
2022/01/20 09:34:33;;;;;;;4.67;0.40;;;3.10;99.90;;;;;;5078522;28;20480;-81
2022/01/20 09:36:59;;;;;;;1.33;0.20;;;3.10;99.90;;;;;;5096087;28;20040;-81
2022/01/20 09:39:25;;;;;;;5.00;0.27;;;3.20;99.90;;;;;;5095344;28;20068;-80
2022/01/20 09:41:51;;;;;;;4.53;0.43;;;3.30;99.90;;;;;;5095508;28;20384;-79
2022/01/20 09:44:16;;;;;;;7.77;0.80;;;3.40;99.90;;;;;;5095496;28;20126;-80
2022/01/20 09:46:44;;;;;;;6.75;1.08;;;3.60;99.90;;;;;;5095305;28;20054;-80
2022/01/20 09:49:11;;;;;;;4.75;0.32;;;3.70;99.90;;;;;;5096479;28;20036;-80
2022/01/20 09:51:38;;;;;;;4.43;0.50;;;3.70;99.90;;;;;;5095540;28;20058;-81
2022/01/20 09:54:05;;;;;;;6.22;1.40;;;3.60;99.90;;;;;;5078124;28;20487;-80
2022/01/20 09:56:31;;;;;;;5.95;1.35;;;3.50;99.90;;;;;;5094977;28;20384;-80
2022/01/20 09:58:56;;;;;;;7.95;1.00;;;3.40;99.90;;;;;;5095344;28;20520;-81
2022/01/20 10:01:41;;;;;;;2.92;0.50;;;3.40;99.90;;;;;;5094762;28;20084;-80
2022/01/20 10:04:25;;;;;;;11.17;0.83;;;3.40;99.90;;;;;;5095019;28;20047;-80
2022/01/20 10:07:13;;;;;;;7.07;0.87;;;3.40;99.90;;;;;;5094931;28;20040;-80
2022/01/20 10:09:40;;;;;;;7.35;1.40;;;3.50;99.90;;;;;;5094201;28;20051;-80
2022/01/20 10:12:10;;;;;;;3.58;0.50;;;3.60;99.90;;;;;;5093530;28;20044;-81
2022/01/20 10:14:46;;;;;;;6.93;1.10;;;3.70;99.90;;;;;;5095297;28;20092;-79
2022/01/20 10:17:18;;;;;;;5.65;1.27;;;3.80;99.90;;;;;;5094549;28;20039;-80
2022/01/20 10:19:44;;;;;;;5.10;0.98;;;3.90;99.90;;;;;;5100296;28;20126;-81
2022/01/20 10:22:12;;;;;;;8.40;0.43;;;4.20;99.90;;;;;;5101996;28;20096;-82
2022/01/20 10:24:38;;;;;;;4.68;0.55;;;4.20;99.90;;;;;;5102263;28;20040;-82
2022/01/20 10:27:12;;;;;;;5.55;0.80;;;4.10;99.90;;;;;;5101508;28;20040;-82
2022/01/20 10:29:38;;;;;;;3.33;1.40;;;4.00;99.90;;;;;;5101672;28;20039;-82
2022/01/20 10:32:04;;;;;;;9.93;0.77;;;4.00;99.90;;;;;;5085164;28;20067;-81
2022/01/20 10:34:35;;;;;;;9.82;1.75;;;4.10;99.90;;;;;;5084584;28;20036;-81
2022/01/20 10:37:12;;;;;;;3.40;0.50;;;4.40;99.90;;;;;;5101506;28;20502;-81
2022/01/20 10:39:42;;;;;;;5.93;0.55;;;4.50;99.90;;;;;;5084603;28;20036;-81
2022/01/20 10:42:10;;;;;;;6.82;1.05;;;4.50;99.90;;;;;;5102647;28;20091;-81
2022/01/20 10:44:53;;;;;;;12.38;1.10;;;4.50;99.90;;;;;;5102330;28;20090;-80
2022/01/20 10:47:24;;;;;;;8.27;1.38;;;4.60;99.90;;;;;;5102763;28;20127;-81
2022/01/20 10:49:50;;;;;;;10.05;2.22;;;4.50;99.90;;;;;;5086916;28;20085;-82
2022/01/20 10:52:22;;;;;;;12.23;1.45;;;4.50;99.90;;;;;;5086571;28;20044;-81
2022/01/20 10:54:52;;;;;;;9.23;2.33;;;4.50;99.90;;;;;;5081814;28;20071;-81
2022/01/20 10:57:30;;;;;;;7.22;1.75;;;3.90;99.90;;;;;;5082560;28;20072;-81
2022/01/20 11:00:03;;;;;;;7.78;0.95;;;4.50;99.90;;;;;;5083746;28;20095;-82
2022/01/20 11:02:29;;;;;;;7.80;1.02;;;4.40;99.90;;;;;;5082301;28;20517;-81
2022/01/20 11:04:57;;;;;;;5.95;0.80;;;4.50;99.90;;;;;;5082498;28;20050;-81
2022/01/20 11:07:24;;;;;;;6.22;0.47;;;4.50;99.90;;;;;;5071457;28;20036;-81
2022/01/20 11:09:56;;;;;;;4.57;0.73;;;4.40;99.90;;;;;;5106272;28;20054;-80
2022/01/20 11:12:22;;;;;;;5.65;0.20;;;4.10;99.90;;;;;;5105655;28;20048;-82
2022/01/20 11:14:51;;;;;;;8.27;1.02;;;3.70;99.90;;;;;;5085312;28;20044;-80
2022/01/20 11:17:29;;;;;;;6.20;1.20;;;3.60;99.90;;;;;;5102871;28;20044;-81
2022/01/20 11:20:04;;;;;;;9.05;1.05;;;3.50;99.90;;;;;;5085760;28;20044;-82
2022/01/20 11:22:30;;;;;;;11.23;1.50;;;3.30;99.90;;;;;;5107601;28;20040;-81
2022/01/20 11:24:59;;;;;;;5.57;0.77;;;3.30;99.90;;;;;;5090631;28;20134;-82
2022/01/20 11:27:41;;;;;;;2.00;0.45;;;3.30;99.90;;;;;;5090929;28;20044;-82
2022/01/20 11:30:26;;;;;;;5.93;1.30;;;3.60;99.90;;;;;;5106425;28;20032;-81
2022/01/20 11:33:04;;;;;;;8.85;0.77;;;3.90;99.90;;;;;;5097486;28;20063;-81
2022/01/20 11:35:43;;;;;;;7.60;1.10;;;4.30;99.90;;;;;;5084126;28;20032;-81
2022/01/20 11:38:11;;;;;;;9.18;1.73;;;4.40;99.90;;;;;;5099271;28;20047;-83
2022/01/20 11:40:59;;;;;;;7.60;0.95;;;4.60;99.90;;;;;;5099043;28;20046;-82
2022/01/20 11:43:46;;;;;;;2.92;0.47;;;4.60;99.90;;;;;;5081705;28;20079;-82
2022/01/20 11:46:18;;;;;;;7.53;0.40;;;4.40;99.90;;;;;;5099082;28;20094;-82
2022/01/20 11:49:02;;;;;;;7.63;0.95;;;4.40;99.90;;;;;;5082095;28;20036;-82
2022/01/20 11:51:50;;;;;;;10.27;1.35;;;4.70;99.90;;;;;;5100950;28;20036;-83
2022/01/20 11:54:37;;;;;;;10.07;1.15;;;5.00;99.90;;;;;;5100011;28;20083;-82
2022/01/20 11:57:10;;;;;;;6.82;0.65;;;5.00;99.90;;;;;;5084234;28;20048;-83
2022/01/20 11:59:41;;;;;;;7.35;1.38;;;5.00;99.90;;;;;;5100901;28;20050;-82
2022/01/20 12:02:22;;;;;;;2.03;0.85;;;5.20;99.90;;;;;;5084958;28;20093;-81
2022/01/20 12:04:51;;;;;;;9.23;1.00;;;5.30;99.90;;;;;;5084996;28;20055;-81
2022/01/20 12:07:25;;;;;;;5.53;0.90;;;5.30;99.90;;;;;;5101883;28;20040;-82
2022/01/20 12:09:51;;;;;;;1.52;0.80;;;5.10;99.90;;;;;;5101507;28;20047;-83
2022/01/20 12:12:24;;;;;;;5.45;0.43;;;5.00;99.90;;;;;;5102037;28;20131;-82
2022/01/20 12:14:50;;;;;;;8.70;1.40;;;4.80;99.90;;;;;;5100169;28;20039;-81
2022/01/20 12:17:16;;;;;;;4.30;1.05;;;4.60;99.90;;;;;;5099786;28;20035;-82
2022/01/20 12:20:02;;;;;;;4.05;1.30;;;4.50;99.90;;;;;;5100081;28;20047;-81
2022/01/20 12:22:28;;;;;;;8.75;0.88;;;4.50;99.90;;;;;;5098651;28;20036;-82
2022/01/20 12:24:56;;;;;;;7.05;1.20;;;4.40;99.90;;;;;;5099155;28;20046;-82
2022/01/20 12:27:24;;;;;;;7.68;0.95;;;4.50;99.90;;;;;;5083656;28;20044;-82
2022/01/20 12:29:53;;;;;;;18.95;5.40;;;4.00;99.90;;;;;;5083399;28;20070;-82
2022/01/20 12:32:20;;;;;;;17.55;6.60;;;4.10;99.90;;;;;;5083010;28;20036;-82
2022/01/20 12:35:00;;;;;;;8.90;3.40;;;4.40;99.90;;;;;;5084571;28;20071;-83
2022/01/20 12:37:52;;;;;;;3.88;0.43;;;4.70;99.90;;;;;;5104480;28;20056;-81
2022/01/20 12:40:22;;;;;;;7.80;1.90;;;4.70;99.90;;;;;;5101644;28;20047;-82
2022/01/20 12:42:48;;;;;;;5.68;1.10;;;4.80;99.90;;;;;;5104644;28;20103;-82
2022/01/20 12:48:15;;;;;;;9.80;1.42;;;5.10;99.90;;;;;;5107807;28;20048;-82
2022/01/20 12:50:52;;;;;;;5.32;0.52;;;5.20;99.90;;;;;;5105110;28;20087;-82
2022/01/20 12:53:18;;;;;;;4.68;1.05;;;5.30;99.90;;;;;;5088594;28;20040;-82
2022/01/20 12:55:52;;;;;;;6.28;0.65;;;5.40;99.90;;;;;;5107478;28;20048;-81
2022/01/20 12:58:18;;;;;;;9.82;1.35;;;5.40;99.90;;;;;;5106719;28;20043;-81
2022/01/20 13:00:43;;;;;;;7.65;0.88;;;5.40;99.90;;;;;;5107533;28;20154;-82
2022/01/20 13:03:09;;;;;;;7.90;1.15;;;5.30;99.90;;;;;;5089471;28;20070;-82
2022/01/20 13:05:46;;;;;;;3.55;0.70;;;5.40;99.90;;;;;;5108464;28;20043;-81
2022/01/20 13:08:20;;;;;;;2.30;0.60;;;5.50;99.90;;;;;;5109400;28;20047;-82
2022/01/20 13:10:46;;;;;;;6.95;0.82;;;5.60;99.90;;;;;;5109054;28;20051;-82
2022/01/20 13:13:18;;;;;;;10.52;2.88;;;5.70;99.90;;;;;;5109101;28;20036;-82
2022/01/20 13:15:46;;;;;;;7.65;1.05;;;5.60;99.90;;;;;;5091930;28;20047;-82
2022/01/20 13:18:13;;;;;;;8.27;1.33;;;5.30;99.90;;;;;;5106634;28;20071;-81
2022/01/20 13:20:42;;;;;;;4.47;1.23;;;5.10;99.90;;;;;;5110491;28;20040;-82
2022/01/20 13:23:54;;;;;;;4.18;0.75;;;5.10;99.90;;;;;;5113610;28;20036;-81
2022/01/20 13:26:03;;;;;;;4.13;0.98;;;5.20;99.90;;;;;;5113227;28;20052;-81
2022/01/20 13:28:29;;;;;;;13.68;1.75;;;5.50;99.90;;;;;;5113523;28;20104;-81
2022/01/20 13:30:54;;;;;;;2.95;0.60;;;5.50;99.90;;;;;;5115462;28;20062;-81
2022/01/20 13:33:22;;;;;;;10.23;1.15;;;5.70;99.90;;;;;;5113576;28;20058;-81
2022/01/20 13:36:01;;;;;;;12.07;2.25;;;5.60;99.90;;;;;;5115656;28;20043;-81
2022/01/20 13:38:32;;;;;;;4.63;0.47;;;5.30;99.90;;;;;;5098016;28;20063;-81
2022/01/20 13:41:08;;;;;;;5.68;0.30;;;4.80;99.90;;;;;;5114866;28;20051;-82
2022/01/20 13:46:32;;;;;;;3.95;0.35;;;4.10;99.90;;;;;;5107889;28;20071;-80
2022/01/20 13:49:21;;;;;;;6.38;0.60;;;3.80;99.90;;;;;;5104138;28;20506;-80
2022/01/20 13:51:57;;;;;;;5.03;0.55;;;3.80;99.90;;;;;;5104057;28;20028;-81
2022/01/20 13:54:22;;;;;;;5.05;0.68;;;3.80;99.90;;;;;;5086992;28;20066;-81
2022/01/20 13:56:52;;;;;;;6.75;0.40;;;4.10;99.90;;;;;;5087451;28;20040;-80
2022/01/20 13:59:18;;;;;;;3.83;0.20;;;4.40;99.90;;;;;;5104367;28;20043;-81
2022/01/20 14:01:44;;;;;;;5.07;0.50;;;4.60;99.90;;;;;;5103348;28;20075;-80
2022/01/20 14:04:09;;;;;;;4.95;0.98;;;4.70;99.90;;;;;;5104064;28;20048;-81
2022/01/20 14:06:35;;;;;;;3.67;0.22;;;4.50;99.90;;;;;;5104094;28;20113;-80